createdAt,value
2023-05-02T00:01:56.288Z,12.70
2023-05-02T00:04:23.365Z,12.72
2023-05-02T00:06:51.661Z,12.73
2023-05-02T00:09:18.658Z,12.75
2023-05-02T00:11:45.501Z,12.67
2023-05-02T00:14:14.778Z,12.66
2023-05-02T00:16:43.591Z,12.59
2023-05-02T00:19:10.329Z,12.58
2023-05-02T00:21:37.031Z,12.57
2023-05-02T00:24:04.283Z,12.55
2023-05-02T00:26:31.830Z,12.52
2023-05-02T00:28:59.029Z,12.45
2023-05-02T00:31:27.110Z,12.40
2023-05-02T00:33:53.801Z,12.38
2023-05-02T00:36:20.586Z,12.38
2023-05-02T00:38:47.336Z,12.39
2023-05-02T00:41:14.178Z,12.42
2023-05-02T00:43:41.121Z,12.44
2023-05-02T00:46:08.479Z,12.44
2023-05-02T00:48:37.125Z,12.41
2023-05-02T00:51:08.964Z,12.39
2023-05-02T00:53:35.791Z,12.37
2023-05-02T00:56:04.220Z,12.38
2023-05-02T00:58:31.297Z,12.35
2023-05-02T01:01:09.328Z,12.32
2023-05-02T01:03:44.478Z,12.33
2023-05-02T01:06:21.461Z,12.32
2023-05-02T01:08:56.205Z,12.32
2023-05-02T01:11:34.458Z,12.24
2023-05-02T01:14:05.413Z,12.23
2023-05-02T01:16:41.570Z,12.25
2023-05-02T01:19:26.932Z,12.32
2023-05-02T01:21:57.755Z,12.33
2023-05-02T01:24:29.772Z,12.36
2023-05-02T01:27:08.048Z,12.41
2023-05-02T01:29:38.744Z,12.45
2023-05-02T01:32:08.143Z,12.49
2023-05-02T01:34:38.828Z,12.46
2023-05-02T01:37:10.380Z,12.43
2023-05-02T01:39:40.307Z,12.40
2023-05-02T01:42:07.396Z,12.33
2023-05-02T01:44:36.846Z,12.36
2023-05-02T01:47:07.935Z,12.34
2023-05-02T01:49:37.276Z,12.29
2023-05-02T01:52:07.908Z,12.29
2023-05-02T01:54:37.859Z,12.27
2023-05-02T01:57:07.346Z,12.21
2023-05-02T01:59:37.150Z,12.22
2023-05-02T02:02:06.840Z,12.26
2023-05-02T02:04:35.667Z,12.32
2023-05-02T02:07:04.257Z,12.33
2023-05-02T02:09:31.460Z,12.29
2023-05-02T02:12:06.405Z,12.31
2023-05-02T02:14:35.103Z,12.30
2023-05-02T02:17:10.038Z,12.26
2023-05-02T02:19:39.667Z,12.27
2023-05-02T02:22:07.921Z,12.27
2023-05-02T02:24:36.775Z,12.26
2023-05-02T02:27:04.166Z,12.23
2023-05-02T02:29:32.906Z,12.19
2023-05-02T02:31:59.917Z,12.20
2023-05-02T02:34:28.661Z,12.12
2023-05-02T02:37:00.720Z,12.04
2023-05-02T02:39:41.644Z,11.93
2023-05-02T02:42:14.508Z,11.85
2023-05-02T02:44:52.682Z,11.79
2023-05-02T02:47:27.330Z,11.73
2023-05-02T02:50:10.772Z,11.70
2023-05-02T02:52:48.761Z,11.69
2023-05-02T02:55:24.487Z,11.61
2023-05-02T02:57:59.300Z,11.58
2023-05-02T03:00:28.371Z,11.59
2023-05-02T03:02:56.627Z,11.60
2023-05-02T03:05:25.449Z,11.60
2023-05-02T03:07:52.488Z,11.59
2023-05-02T03:10:21.936Z,11.56
2023-05-02T03:12:49.095Z,11.54
2023-05-02T03:15:29.062Z,11.51
2023-05-02T03:17:57.641Z,11.52
2023-05-02T03:20:26.121Z,11.55
2023-05-02T03:22:55.465Z,11.54
2023-05-02T03:25:22.353Z,11.51
2023-05-02T03:27:49.492Z,11.48
2023-05-02T03:30:16.262Z,11.44
2023-05-02T03:32:43.180Z,11.40
2023-05-02T03:35:10.264Z,11.41
2023-05-02T03:37:41.915Z,11.36
2023-05-02T03:40:08.736Z,11.36
2023-05-02T03:42:41.219Z,11.36
2023-05-02T03:45:08.708Z,11.34
2023-05-02T03:47:35.439Z,11.37
2023-05-02T03:50:03.392Z,11.35
2023-05-02T03:52:31.821Z,11.33
2023-05-02T03:55:01.294Z,11.33
2023-05-02T03:57:30.362Z,11.36
2023-05-02T03:59:57.684Z,11.31
2023-05-02T04:02:25.581Z,11.27
2023-05-02T04:04:52.588Z,11.29
2023-05-02T04:07:20.148Z,11.30
2023-05-02T04:09:46.966Z,11.27
2023-05-02T04:12:16.133Z,11.26
2023-05-02T04:14:42.782Z,11.26
2023-05-02T04:17:10.303Z,11.21
2023-05-02T04:19:37.224Z,11.16
2023-05-02T04:22:04.108Z,11.08
2023-05-02T04:24:31.173Z,11.06
2023-05-02T04:26:58.117Z,10.98
2023-05-02T04:29:26.198Z,10.96
2023-05-02T04:31:53.807Z,10.99
2023-05-02T04:34:21.175Z,10.99
2023-05-02T04:36:49.262Z,10.98
2023-05-02T04:39:16.018Z,11.01
2023-05-02T04:41:43.242Z,11.01
2023-05-02T04:44:10.071Z,10.97
2023-05-02T04:46:38.286Z,10.89
2023-05-02T04:49:05.177Z,10.87
2023-05-02T04:51:31.968Z,10.88
2023-05-02T04:53:58.601Z,10.90
2023-05-02T04:56:27.070Z,10.87
2023-05-02T04:58:53.962Z,10.87
2023-05-02T05:01:20.701Z,10.87
2023-05-02T05:03:49.158Z,10.90
2023-05-02T05:06:16.068Z,10.95
2023-05-02T05:08:43.012Z,10.92
2023-05-02T05:11:09.733Z,10.91
2023-05-02T05:13:36.461Z,10.91
2023-05-02T05:16:03.961Z,10.92
2023-05-02T05:18:32.966Z,10.86
2023-05-02T05:21:01.040Z,10.82
2023-05-02T05:23:29.281Z,10.80
2023-05-02T05:25:55.853Z,10.77
2023-05-02T05:28:22.582Z,10.76
2023-05-02T05:30:49.226Z,10.76
2023-05-02T05:33:16.043Z,10.79
2023-05-02T05:35:42.826Z,10.78
2023-05-02T05:38:11.051Z,10.73
2023-05-02T05:40:37.758Z,10.65
2023-05-02T05:43:04.789Z,10.60
2023-05-02T05:45:31.529Z,10.60
2023-05-02T05:47:58.490Z,10.65
2023-05-02T05:50:25.233Z,10.70
2023-05-02T05:52:52.103Z,10.67
2023-05-02T05:55:20.219Z,10.61
2023-05-02T05:57:46.902Z,10.59
2023-05-02T06:00:14.886Z,10.60
2023-05-02T06:02:41.835Z,10.62
2023-05-02T06:05:08.856Z,10.62
2023-05-02T06:07:35.722Z,10.64
2023-05-02T06:10:02.688Z,10.66
2023-05-02T06:12:31.158Z,10.64
2023-05-02T06:14:57.836Z,10.62
2023-05-02T06:17:24.608Z,10.59
2023-05-02T06:19:51.439Z,10.56
2023-05-02T06:22:18.184Z,10.56
2023-05-02T06:24:44.830Z,10.59
2023-05-02T06:27:11.525Z,10.61
2023-05-02T06:29:39.558Z,10.65
2023-05-02T06:32:06.606Z,10.68
2023-05-02T06:34:34.168Z,10.73
2023-05-02T06:37:01.174Z,10.72
2023-05-02T06:39:27.854Z,10.72
2023-05-02T06:41:57.024Z,10.79
2023-05-02T06:44:23.794Z,10.86
2023-05-02T06:46:52.046Z,10.91
2023-05-02T06:49:18.764Z,10.90
2023-05-02T06:51:45.437Z,10.90
2023-05-02T06:54:12.786Z,10.90
2023-05-02T06:56:39.771Z,10.87
2023-05-02T06:59:07.508Z,10.86
2023-05-02T07:01:34.308Z,10.80
2023-05-02T07:04:05.770Z,10.86
2023-05-02T07:06:32.896Z,10.93
2023-05-02T07:08:59.740Z,10.98
2023-05-02T07:11:28.300Z,11.01
2023-05-02T07:13:57.908Z,11.01
2023-05-02T07:16:24.912Z,11.06
2023-05-02T07:18:51.657Z,11.02
2023-05-02T07:21:19.779Z,11.01
2023-05-02T07:23:46.499Z,11.02
2023-05-02T07:26:13.749Z,11.05
2023-05-02T07:28:42.887Z,11.03
2023-05-02T07:31:09.602Z,10.97
2023-05-02T07:33:36.520Z,11.02
2023-05-02T07:36:03.438Z,11.11
2023-05-02T07:38:31.487Z,11.16
2023-05-02T07:40:59.081Z,11.19
2023-05-02T07:43:26.440Z,11.23
2023-05-02T07:45:56.298Z,11.25
2023-05-02T07:48:23.731Z,11.23
2023-05-02T07:50:52.067Z,11.19
2023-05-02T07:53:19.211Z,11.20
2023-05-02T07:55:47.776Z,11.23
2023-05-02T07:58:15.264Z,11.25
2023-05-02T08:00:42.055Z,11.31
2023-05-02T08:03:08.991Z,11.32
2023-05-02T08:05:36.165Z,11.37
2023-05-02T08:08:02.976Z,11.33
2023-05-02T08:10:29.628Z,11.28
2023-05-02T08:12:57.616Z,11.24
2023-05-02T08:15:24.619Z,11.21
2023-05-02T08:17:51.689Z,11.11
2023-05-02T08:20:18.462Z,11.08
2023-05-02T08:22:45.524Z,11.13
2023-05-02T08:25:12.184Z,11.16
2023-05-02T08:27:39.726Z,11.12
2023-05-02T08:30:09.913Z,11.10
2023-05-02T08:32:38.407Z,11.15
2023-05-02T08:35:07.393Z,11.25
2023-05-02T08:37:35.172Z,11.31
2023-05-02T08:40:02.364Z,11.37
2023-05-02T08:42:33.084Z,11.37
2023-05-02T08:45:00.730Z,11.37
2023-05-02T08:47:31.905Z,11.47
2023-05-02T08:50:00.794Z,11.52
2023-05-02T08:52:29.193Z,11.55
2023-05-02T08:54:56.213Z,11.64
2023-05-02T08:57:22.900Z,11.64
2023-05-02T08:59:49.944Z,11.54
2023-05-02T09:02:37.515Z,11.54
2023-05-02T09:05:08.156Z,11.59
2023-05-02T09:07:44.616Z,11.54
2023-05-02T09:10:12.073Z,11.49
2023-05-02T09:12:39.412Z,11.51
2023-05-02T09:15:10.672Z,11.51
2023-05-02T09:17:44.910Z,11.50
2023-05-02T09:20:14.878Z,11.52
2023-05-02T09:22:50.167Z,11.58
2023-05-02T09:25:17.226Z,11.51
2023-05-02T09:27:52.050Z,11.50
2023-05-02T09:30:20.920Z,11.56
2023-05-02T09:32:51.225Z,11.61
2023-05-02T09:35:23.841Z,11.64
2023-05-02T09:37:54.558Z,11.65
2023-05-02T09:40:22.117Z,11.68
2023-05-02T09:42:51.716Z,11.74
2023-05-02T09:45:22.873Z,11.83
2023-05-02T09:47:50.016Z,11.90
2023-05-02T09:50:35.022Z,11.85
2023-05-02T09:53:04.183Z,11.84
2023-05-02T09:55:32.342Z,11.95
2023-05-02T09:57:59.510Z,12.15
2023-05-02T10:00:39.795Z,12.25
2023-05-02T10:03:08.225Z,12.30
2023-05-02T10:05:39.008Z,12.27
2023-05-02T10:08:06.846Z,12.23
2023-05-02T10:10:35.958Z,12.21
2023-05-02T10:13:06.237Z,12.25
2023-05-02T10:15:39.523Z,12.21
2023-05-02T10:18:14.339Z,12.27
2023-05-02T10:20:49.033Z,12.41
2023-05-02T10:23:16.917Z,12.56
2023-05-02T10:25:43.990Z,12.74
2023-05-02T10:28:11.355Z,12.88
2023-05-02T10:30:41.311Z,12.99
2023-05-02T10:33:08.295Z,12.98
2023-05-02T10:35:39.987Z,13.04
2023-05-02T10:38:08.467Z,13.17
2023-05-02T10:40:35.707Z,13.26
2023-05-02T10:43:04.944Z,13.13
2023-05-02T10:45:33.690Z,13.15
2023-05-02T10:48:17.752Z,13.30
2023-05-02T10:50:49.108Z,13.40
2023-05-02T10:53:24.583Z,13.52
2023-05-02T10:56:15.706Z,13.52
2023-05-02T10:58:43.168Z,13.56
2023-05-02T11:01:37.654Z,13.57
2023-05-02T11:04:06.251Z,13.52
2023-05-02T11:06:35.837Z,13.39
2023-05-02T11:09:32.945Z,13.38
2023-05-02T11:12:01.553Z,13.45
2023-05-02T11:14:47.270Z,13.50
2023-05-02T11:17:17.423Z,13.63
2023-05-02T11:20:28.870Z,13.75
2023-05-02T11:22:58.314Z,13.76
2023-05-02T11:25:40.754Z,13.71
2023-05-02T11:28:28.507Z,13.67
2023-05-02T11:30:57.938Z,13.72
2023-05-02T11:33:24.844Z,13.74
2023-05-02T11:35:51.899Z,13.60
2023-05-02T11:38:21.663Z,13.52
2023-05-02T11:40:59.176Z,13.48
2023-05-02T11:43:29.386Z,13.45
2023-05-02T11:46:00.650Z,13.37
2023-05-02T11:48:28.254Z,13.49
2023-05-02T11:50:56.957Z,13.68
2023-05-02T11:53:26.221Z,13.86
2023-05-02T11:55:55.263Z,13.97
2023-05-02T11:58:23.652Z,14.09
2023-05-02T12:00:52.857Z,14.25
2023-05-02T12:03:30.307Z,14.28
2023-05-02T12:05:58.650Z,14.26
2023-05-02T12:08:27.014Z,14.28
2023-05-02T12:10:55.102Z,14.37
2023-05-02T12:13:24.702Z,14.36
2023-05-02T12:15:53.264Z,14.42
2023-05-02T12:18:23.891Z,14.43
2023-05-02T12:20:53.362Z,14.27
2023-05-02T12:23:20.921Z,14.13
2023-05-02T12:25:49.155Z,14.06
2023-05-02T12:28:18.352Z,14.21
2023-05-02T12:30:48.436Z,14.23
2023-05-02T12:33:16.765Z,14.09
2023-05-02T12:35:45.975Z,14.13
2023-05-02T12:38:16.489Z,14.28
2023-05-02T12:40:52.326Z,14.44
2023-05-02T12:43:19.918Z,14.46
2023-05-02T12:45:48.504Z,14.35
2023-05-02T12:48:22.314Z,14.22
2023-05-02T12:50:49.577Z,14.27
2023-05-02T12:53:17.856Z,14.31
2023-05-02T12:55:46.946Z,14.42
2023-05-02T12:58:16.049Z,14.55
2023-05-02T13:00:44.225Z,14.63
2023-05-02T13:03:12.516Z,14.46
2023-05-02T13:05:39.406Z,14.41
2023-05-02T13:08:06.220Z,14.54
2023-05-02T13:10:35.923Z,14.60
2023-05-02T13:13:04.461Z,14.63
2023-05-02T13:15:31.530Z,14.56
2023-05-02T13:17:58.396Z,14.39
2023-05-02T13:20:26.849Z,14.35
2023-05-02T13:22:53.683Z,14.35
2023-05-02T13:25:20.452Z,14.37
2023-05-02T13:27:48.616Z,14.48
2023-05-02T13:30:15.415Z,14.65
2023-05-02T13:32:42.183Z,14.76
2023-05-02T13:35:14.352Z,14.74
2023-05-02T13:37:41.949Z,14.70
2023-05-02T13:40:09.301Z,14.74
2023-05-02T13:42:36.286Z,14.74
2023-05-02T13:45:06.725Z,14.68
2023-05-02T13:47:33.577Z,14.75
2023-05-02T13:50:00.375Z,14.82
2023-05-02T13:52:27.655Z,14.79
2023-05-02T13:54:54.310Z,14.75
2023-05-02T13:57:21.009Z,14.84
2023-05-02T13:59:47.677Z,14.89
2023-05-02T14:02:17.542Z,14.91
2023-05-02T14:04:44.270Z,14.94
2023-05-02T14:07:11.356Z,15.05
2023-05-02T14:09:38.107Z,15.11
2023-05-02T14:12:04.990Z,15.07
2023-05-02T14:14:31.781Z,15.15
2023-05-02T14:17:00.835Z,15.24
2023-05-02T14:19:29.091Z,15.29
2023-05-02T14:21:55.752Z,15.34
2023-05-02T14:24:23.888Z,15.46
2023-05-02T14:26:51.078Z,15.55
2023-05-02T14:29:18.559Z,15.57
2023-05-02T14:31:46.112Z,15.46
2023-05-02T14:34:13.255Z,15.37
2023-05-02T14:36:41.662Z,15.41
2023-05-02T14:39:08.379Z,15.47
2023-05-02T14:41:35.125Z,15.38
2023-05-02T14:44:06.414Z,15.43
2023-05-02T14:46:36.220Z,15.46
2023-05-02T14:49:02.955Z,15.41
2023-05-02T14:51:29.825Z,15.40
2023-05-02T14:53:57.926Z,15.43
2023-05-02T14:56:26.035Z,15.50
2023-05-02T14:58:52.835Z,15.42
2023-05-02T15:01:22.676Z,15.33
2023-05-02T15:04:05.126Z,15.29
2023-05-02T15:06:33.821Z,15.34
2023-05-02T15:09:02.418Z,15.47
2023-05-02T15:11:29.144Z,15.49
2023-05-02T15:13:59.475Z,15.39
2023-05-02T15:16:29.406Z,15.24
2023-05-02T15:18:56.916Z,15.26
2023-05-02T15:21:23.771Z,15.13
2023-05-02T15:23:50.851Z,15.15
2023-05-02T15:26:21.261Z,15.18
2023-05-02T15:28:49.082Z,15.20
2023-05-02T15:31:17.187Z,15.27
2023-05-02T15:33:45.373Z,15.23
2023-05-02T15:36:12.031Z,15.16
2023-05-02T15:38:42.848Z,14.96
2023-05-02T15:41:11.068Z,14.77
2023-05-02T15:43:39.200Z,14.70
2023-05-02T15:46:05.989Z,14.57
2023-05-02T15:48:33.583Z,14.54
2023-05-02T15:51:00.607Z,14.52
2023-05-02T15:53:27.656Z,14.47
2023-05-02T15:55:54.761Z,14.52
2023-05-02T15:58:21.873Z,14.45
2023-05-02T16:00:51.837Z,14.36
2023-05-02T16:03:18.663Z,14.39
2023-05-02T16:05:46.564Z,14.31
2023-05-02T16:08:13.514Z,14.29
2023-05-02T16:10:40.932Z,14.25
2023-05-02T16:13:07.794Z,14.26
2023-05-02T16:15:34.454Z,14.27
2023-05-02T16:18:02.496Z,14.25
2023-05-02T16:20:29.293Z,14.24
2023-05-02T16:22:56.080Z,14.28
2023-05-02T16:25:22.718Z,14.29
2023-05-02T16:27:49.431Z,14.26
2023-05-02T16:30:19.066Z,14.30
2023-05-02T16:32:45.892Z,14.35
2023-05-02T16:35:14.349Z,14.38
2023-05-02T16:37:42.027Z,14.41
2023-05-02T16:40:10.102Z,14.44
2023-05-02T16:42:37.025Z,14.35
2023-05-02T16:45:04.274Z,14.26
2023-05-02T16:47:31.882Z,14.14
2023-05-02T16:50:01.646Z,14.05
2023-05-02T16:52:30.023Z,14.02
2023-05-02T16:54:56.802Z,13.98
2023-05-02T16:57:23.489Z,14.00
2023-05-02T16:59:54.086Z,14.05
2023-05-02T17:02:22.147Z,14.09
2023-05-02T17:04:50.099Z,14.13
2023-05-02T17:07:17.074Z,14.09
2023-05-02T17:09:45.458Z,14.10
2023-05-02T17:12:12.852Z,14.08
2023-05-02T17:14:42.239Z,13.98
2023-05-02T17:17:09.597Z,13.91
2023-05-02T17:19:36.748Z,13.84
2023-05-02T17:22:05.380Z,13.80
2023-05-02T17:24:34.089Z,13.79
2023-05-02T17:27:02.789Z,13.79
2023-05-02T17:29:29.677Z,13.84
2023-05-02T17:32:00.499Z,13.83
2023-05-02T17:34:28.589Z,13.83
2023-05-02T17:36:56.079Z,13.81
2023-05-02T17:39:22.959Z,13.73
2023-05-02T17:41:49.925Z,13.61
2023-05-02T17:44:20.882Z,13.57
2023-05-02T17:46:47.991Z,13.49
2023-05-02T17:49:14.614Z,13.40
2023-05-02T17:51:41.485Z,13.39
2023-05-02T17:54:09.142Z,13.35
2023-05-02T17:56:37.441Z,13.28
2023-05-02T17:59:07.449Z,13.24
2023-05-02T18:01:36.119Z,13.19
2023-05-02T18:04:04.134Z,13.17
2023-05-02T18:06:32.021Z,13.09
2023-05-02T18:08:59.832Z,12.98
2023-05-02T18:11:27.789Z,12.85
2023-05-02T18:13:55.854Z,12.82
2023-05-02T18:16:23.775Z,12.81
2023-05-02T18:18:51.816Z,12.78
2023-05-02T18:21:22.474Z,12.73
2023-05-02T18:23:49.513Z,12.64
2023-05-02T18:26:16.193Z,12.50
2023-05-02T18:28:46.028Z,12.36
2023-05-02T18:31:16.509Z,12.31
2023-05-02T18:33:43.231Z,12.23
2023-05-02T18:36:11.252Z,12.11
2023-05-02T18:38:38.752Z,12.07
2023-05-02T18:41:05.393Z,12.02
2023-05-02T18:43:33.622Z,11.96
2023-05-02T18:46:00.475Z,11.92
2023-05-02T18:48:27.588Z,11.90
2023-05-02T18:50:56.299Z,11.88
2023-05-02T18:53:26.317Z,11.83
2023-05-02T18:55:54.888Z,11.77
2023-05-02T18:58:22.559Z,11.77
2023-05-02T19:00:50.624Z,11.75
2023-05-02T19:03:19.214Z,11.72
2023-05-02T19:05:46.437Z,11.68
2023-05-02T19:08:13.242Z,11.65
2023-05-02T19:10:41.355Z,11.59
2023-05-02T19:13:08.040Z,11.54
2023-05-02T19:15:34.871Z,11.50
2023-05-02T19:18:02.202Z,11.45
2023-05-02T19:20:30.170Z,11.36
2023-05-02T19:23:14.780Z,11.34
2023-05-02T19:25:46.681Z,11.28
2023-05-02T19:28:15.627Z,11.27
2023-05-02T19:30:42.713Z,11.24
2023-05-02T19:33:09.487Z,11.21
2023-05-02T19:35:36.618Z,11.21
2023-05-02T19:38:03.447Z,11.18
2023-05-02T19:40:30.221Z,11.18
2023-05-02T19:42:58.277Z,11.15
2023-05-02T19:45:25.152Z,11.12
2023-05-02T19:47:52.627Z,11.08
2023-05-02T19:50:20.069Z,11.06
2023-05-02T19:52:46.750Z,11.01
2023-05-02T19:55:13.771Z,10.97
2023-05-02T19:57:41.377Z,10.95
2023-05-02T20:00:12.746Z,10.96
2023-05-02T20:02:39.812Z,10.97
2023-05-02T20:05:07.642Z,10.96
2023-05-02T20:07:34.400Z,10.95
2023-05-02T20:10:01.603Z,10.91
2023-05-02T20:12:28.435Z,10.86
2023-05-02T20:14:55.354Z,10.81
2023-05-02T20:17:23.523Z,10.74
2023-05-02T20:19:50.179Z,10.69
2023-05-02T20:22:18.174Z,10.67
2023-05-02T20:24:44.834Z,10.62
2023-05-02T20:27:11.911Z,10.56
2023-05-02T20:29:38.714Z,10.51
2023-05-02T20:32:06.033Z,10.48
2023-05-02T20:34:40.317Z,10.44
2023-05-02T20:37:07.159Z,10.38
2023-05-02T20:39:33.905Z,10.35
2023-05-02T20:42:02.320Z,10.34
2023-05-02T20:44:33.386Z,10.27
2023-05-02T20:47:00.119Z,10.24
2023-05-02T20:49:30.770Z,10.22
2023-05-02T20:52:04.425Z,10.19
2023-05-02T20:54:32.859Z,10.14
2023-05-02T20:57:00.857Z,10.13
2023-05-02T20:59:27.516Z,10.08
2023-05-02T21:01:55.691Z,10.08
2023-05-02T21:04:22.507Z,10.07
2023-05-02T21:06:49.496Z,10.08
2023-05-02T21:09:17.794Z,10.06
2023-05-02T21:11:44.562Z,10.02
2023-05-02T21:14:11.828Z,10.04
2023-05-02T21:16:38.563Z,10.02
2023-05-02T21:19:06.787Z,9.98
2023-05-02T21:21:33.638Z,9.96
2023-05-02T21:24:00.784Z,9.90
2023-05-02T21:26:29.073Z,9.88
2023-05-02T21:28:55.798Z,9.88
2023-05-02T21:31:22.562Z,9.88
2023-05-02T21:33:51.353Z,9.89
2023-05-02T21:36:18.360Z,9.82
2023-05-02T21:38:45.142Z,9.79
2023-05-02T21:41:11.823Z,9.76
2023-05-02T21:43:41.619Z,9.73
2023-05-02T21:46:10.697Z,9.71
2023-05-02T21:48:38.138Z,9.64
2023-05-02T21:51:07.454Z,9.63
2023-05-02T21:53:34.643Z,9.62
2023-05-02T21:56:02.614Z,9.60
2023-05-02T21:58:29.809Z,9.59
2023-05-02T22:01:01.094Z,9.56
2023-05-02T22:03:28.154Z,9.54
2023-05-02T22:05:57.531Z,9.53
2023-05-02T22:08:24.814Z,9.51
2023-05-02T22:10:51.602Z,9.48
2023-05-02T22:13:18.515Z,9.48
2023-05-02T22:15:47.273Z,9.48
2023-05-02T22:18:16.867Z,9.45
2023-05-02T22:20:45.602Z,9.43
2023-05-02T22:23:13.061Z,9.41
2023-05-02T22:25:41.481Z,9.40
2023-05-02T22:28:11.516Z,9.35
2023-05-02T22:30:39.214Z,9.33
2023-05-02T22:33:10.081Z,9.30
2023-05-02T22:35:38.538Z,9.29
2023-05-02T22:38:06.614Z,9.22
2023-05-02T22:40:33.761Z,9.20
2023-05-02T22:43:00.907Z,9.18
2023-05-02T22:45:27.967Z,9.14
2023-05-02T22:47:54.865Z,9.10
2023-05-02T22:50:22.282Z,9.07
2023-05-02T22:52:51.100Z,9.05
2023-05-02T22:55:18.061Z,9.02
2023-05-02T22:57:45.034Z,9.01
2023-05-02T23:00:12.565Z,8.99
2023-05-02T23:02:39.432Z,8.98
2023-05-02T23:05:07.082Z,8.97
2023-05-02T23:07:35.097Z,8.97
2023-05-02T23:10:03.532Z,8.97
2023-05-02T23:12:30.422Z,8.95
2023-05-02T23:14:57.262Z,8.93
2023-05-02T23:17:24.035Z,8.91
2023-05-02T23:19:51.151Z,8.90
2023-05-02T23:22:17.956Z,8.88
2023-05-02T23:24:46.229Z,8.88
2023-05-02T23:27:14.894Z,8.86
2023-05-02T23:29:41.664Z,8.88
2023-05-02T23:32:08.553Z,8.87
2023-05-02T23:34:39.033Z,8.85
2023-05-02T23:37:07.770Z,8.82
2023-05-02T23:39:34.559Z,8.81
2023-05-02T23:42:03.747Z,8.78
2023-05-02T23:44:32.009Z,8.78
2023-05-02T23:46:58.954Z,8.71
2023-05-02T23:49:25.724Z,8.69
2023-05-02T23:51:52.463Z,8.67
2023-05-02T23:54:19.150Z,8.61
2023-05-02T23:56:46.440Z,8.56
2023-05-02T23:59:13.119Z,8.53
